New Castle Airport
KILG : now visible

Airfield :











YOU CAN JOIN US ON...

 
LOGIN :

Register | Disclaimer

   EN    FR    IT 

 









Legend :    VFR   Marginal VFR   IFR   Intensive IFR   Very Intensive IFR
Visi :
Ceiling :
>= 8 km
>= 3000ft
5 to 8 km
1000 to 3000 ft
1500m to 5 km
500 to 1000 ft
800 to 1500m
200 to 500 ft
< 800m
< 200 ft
Symbols :   Thunderstorms  Fog  Heavy snow  Heavy precipitations  Wind > 20 kt






- Airport Elevation : 80 ft
- IATA code : ILG


KILG - New Castle

CURRENT METAR :
  • 192351Z 17008KT 10SM OVC013 12/09 A3005 RMK AO2 SLP176 60000 T01170094 10128 20117 53003

EXPIRED METARs :
  • 192306Z 17008KT 10SM BKN011 OVC020 12/10 A3005 RMK AO2 T01170100
  • 192251Z 17008KT 10SM FEW011 BKN021 OVC070 12/10 A3005 RMK AO2 SLP176 T01170100
  • 192151Z 19008KT 10SM BKN015 BKN020 OVC100 12/10 A3004 RMK AO2 RAB13E49 SLP173 P0000 T01170100
  • 192058Z 16012KT 10SM FEW021 FEW080 BKN110 12/09 A3005 RMK AO2 T01220089
  • 191951Z AUTO 16009KT 10SM BKN023 13/08 A3007 RMK AO2 SLP183 T01280083

TAF KILG
Valid from the 20 at 00:00 until the 21 at 00:00 UTC


192323Z 2000/2024 15007KT P6SM BKN025
TEMPO 2000/2003 SCT025 BKN070
FM200700 VRB03KT 6SM BR VCSH OVC009
FM201100 31005KT P6SM BKN015
FM201300 32007KT P6SM SCT070
FM201900 28011G18KT P6SM FEW150
KZDC FIR / North America



MET'MAP, your aeronautical weather chart ! - Copyright ORBIFLY December 2007 - Disclaimer

ORBIFLY MET'MAP TEAM :

Programming & Development : Alexandra Zaïnal
Original concept : Baudouin d'Aumeries
Technical & hardware support : Manuel Goepfert
Assistance : Marc-Olivier Méhu




SOURCES & CREDITS :

   NOAA       Earth
Advisory